createdAt,value
2019-03-18T00:02:11.470Z,6.48
2019-03-18T00:05:14.798Z,6.50
2019-03-18T00:08:18.116Z,6.34
2019-03-18T00:11:21.476Z,6.32
2019-03-18T00:14:24.790Z,6.47
2019-03-18T00:17:28.083Z,6.42
2019-03-18T00:20:31.410Z,6.27
2019-03-18T00:23:34.731Z,6.28
2019-03-18T00:26:38.085Z,6.34
2019-03-18T00:29:41.401Z,6.00
2019-03-18T00:32:44.684Z,5.93
2019-03-18T00:35:48.013Z,6.00
2019-03-18T00:38:51.327Z,6.02
2019-03-18T00:41:54.678Z,5.94
2019-03-18T00:44:57.958Z,5.81
2019-03-18T00:48:01.256Z,5.89
2019-03-18T00:51:04.574Z,5.87
2019-03-18T00:54:07.906Z,5.73
2019-03-18T00:57:11.215Z,5.78
2019-03-18T01:00:15.771Z,5.75
2019-03-18T01:03:19.082Z,5.61
2019-03-18T01:06:22.410Z,5.53
2019-03-18T01:09:25.823Z,5.66
2019-03-18T01:12:29.123Z,5.54
2019-03-18T01:15:32.453Z,5.57
2019-03-18T01:18:35.763Z,5.63
2019-03-18T01:21:39.689Z,5.79
2019-03-18T01:24:42.900Z,5.69
2019-03-18T01:27:46.272Z,5.78
2019-03-18T01:30:49.594Z,5.79
2019-03-18T01:33:52.894Z,5.73
2019-03-18T01:36:56.201Z,5.59
2019-03-18T01:39:59.509Z,5.63
2019-03-18T01:43:02.820Z,5.58
2019-03-18T01:46:06.125Z,5.54
2019-03-18T01:49:09.565Z,5.66
2019-03-18T01:52:12.867Z,5.65
2019-03-18T01:55:16.190Z,5.66
2019-03-18T01:58:19.531Z,5.75
2019-03-18T02:01:22.864Z,5.68
2019-03-18T02:04:26.154Z,5.55
2019-03-18T02:07:29.466Z,5.58
2019-03-18T02:10:32.799Z,5.46
2019-03-18T02:13:36.139Z,5.37
2019-03-18T02:16:39.444Z,5.36
2019-03-18T02:19:42.773Z,5.29
2019-03-18T02:22:46.085Z,5.17
2019-03-18T02:25:49.501Z,5.08
2019-03-18T02:28:52.792Z,5.04
2019-03-18T02:31:56.101Z,4.91
2019-03-18T02:34:59.392Z,4.83
2019-03-18T02:38:02.789Z,4.87
2019-03-18T02:41:06.079Z,4.72
2019-03-18T02:44:09.399Z,4.71
2019-03-18T02:47:12.719Z,4.72
2019-03-18T02:50:16.019Z,4.69
2019-03-18T02:53:19.349Z,4.65
2019-03-18T02:56:22.658Z,4.65
2019-03-18T02:59:25.962Z,4.63
2019-03-18T03:02:29.264Z,4.69
2019-03-18T03:05:32.591Z,4.66
2019-03-18T03:08:35.942Z,4.57
2019-03-18T03:11:39.234Z,4.69
2019-03-18T03:14:42.568Z,4.56
2019-03-18T03:17:45.903Z,4.70
2019-03-18T03:20:49.203Z,4.89
2019-03-18T03:23:52.518Z,4.81
2019-03-18T03:26:55.815Z,4.87
2019-03-18T03:29:59.143Z,4.88
2019-03-18T03:33:02.468Z,4.88
2019-03-18T03:36:05.768Z,4.86
2019-03-18T03:39:09.077Z,4.81
2019-03-18T03:42:12.372Z,4.73
2019-03-18T03:45:15.683Z,4.80
2019-03-18T03:48:19.001Z,4.69
2019-03-18T03:51:22.288Z,4.81
2019-03-18T03:54:25.595Z,4.91
2019-03-18T03:57:28.899Z,4.80
2019-03-18T04:00:32.203Z,4.79
2019-03-18T04:03:38.666Z,4.83
2019-03-18T04:06:40.659Z,4.81
2019-03-18T04:09:44.041Z,4.76
2019-03-18T04:12:47.334Z,4.74
2019-03-18T04:15:50.650Z,4.58
2019-03-18T04:18:54.033Z,4.52
2019-03-18T04:21:57.307Z,4.39
2019-03-18T04:25:00.638Z,4.55
2019-03-18T04:28:03.903Z,4.52
2019-03-18T04:31:07.213Z,4.43
2019-03-18T04:34:10.525Z,4.47
2019-03-18T04:37:13.835Z,4.40
2019-03-18T04:40:17.156Z,4.42
2019-03-18T04:43:20.442Z,4.30
2019-03-18T04:46:23.767Z,4.25
2019-03-18T04:49:27.082Z,4.23
2019-03-18T04:52:30.380Z,4.23
2019-03-18T04:55:33.698Z,4.13
2019-03-18T04:58:36.982Z,4.20
2019-03-18T05:01:40.356Z,4.18
2019-03-18T05:04:43.674Z,4.05
2019-03-18T05:07:46.966Z,4.06
2019-03-18T05:10:50.283Z,4.09
2019-03-18T05:13:53.668Z,4.14
2019-03-18T05:16:57.151Z,4.06
2019-03-18T05:20:00.460Z,4.13
2019-03-18T05:23:03.736Z,4.04
2019-03-18T05:26:07.056Z,3.95
2019-03-18T05:29:10.360Z,3.92
2019-03-18T05:32:13.699Z,3.97
2019-03-18T05:35:17.015Z,4.12
2019-03-18T05:38:20.311Z,4.17
2019-03-18T05:41:23.634Z,4.26
2019-03-18T05:44:26.922Z,4.18
2019-03-18T05:47:39.111Z,4.24
2019-03-18T05:50:35.261Z,4.55
2019-03-18T05:53:38.699Z,5.16
2019-03-18T05:56:42.011Z,6.19
2019-03-18T06:03:55.358Z,7.93
2019-03-18T06:06:59.303Z,9.12
2019-03-18T06:28:03.900Z,15.61
2019-03-18T07:38:53.737Z,9.48
2019-03-18T07:41:57.036Z,20.54
2019-03-18T07:45:00.418Z,14.69
2019-03-18T07:48:06.380Z,18.66
2019-03-18T07:51:08.736Z,20.60
2019-03-18T07:54:12.104Z,17.70
2019-03-18T07:57:15.423Z,14.54
2019-03-18T08:00:18.751Z,13.68
2019-03-18T08:03:22.060Z,13.53
2019-03-18T08:06:25.399Z,17.03
2019-03-18T08:09:28.833Z,13.68
2019-03-18T08:12:32.148Z,12.94
2019-03-18T08:15:35.465Z,13.07
2019-03-18T08:18:43.526Z,11.26
2019-03-18T08:21:43.887Z,10.16
2019-03-18T08:24:47.206Z,10.88
2019-03-18T08:27:50.619Z,10.18
2019-03-18T08:30:53.942Z,9.98
2019-03-18T08:33:57.240Z,20.69
2019-03-18T08:37:00.537Z,21.23
2019-03-18T08:40:06.002Z,18.56
2019-03-18T08:43:09.306Z,13.88
2019-03-18T08:46:12.647Z,11.35
2019-03-18T08:49:15.970Z,10.72
2019-03-18T08:52:19.385Z,10.17
2019-03-18T08:55:22.697Z,9.28
2019-03-18T08:58:26.084Z,8.65
2019-03-18T09:01:29.429Z,8.30
2019-03-18T09:04:32.739Z,7.98
2019-03-18T09:07:36.095Z,7.96
2019-03-18T09:10:39.391Z,7.84
2019-03-18T09:13:42.730Z,7.90
2019-03-18T09:16:46.111Z,7.79
2019-03-18T09:19:49.436Z,8.09
2019-03-18T09:22:52.747Z,8.14
2019-03-18T09:25:56.436Z,7.91
2019-03-18T09:28:59.822Z,7.87
2019-03-18T09:32:03.144Z,7.90
2019-03-18T09:35:07.216Z,8.09
2019-03-18T09:38:10.571Z,9.23
2019-03-18T09:41:13.924Z,10.85
2019-03-18T09:44:17.292Z,10.29
2019-03-18T09:47:20.578Z,9.42
2019-03-18T09:50:25.718Z,8.94
2019-03-18T09:53:28.987Z,8.70
2019-03-18T09:56:32.405Z,8.74
2019-03-18T09:59:35.788Z,8.79
2019-03-18T10:02:39.109Z,9.05
2019-03-18T10:05:43.937Z,9.05
2019-03-18T10:08:47.584Z,9.88
2019-03-18T10:11:50.887Z,10.33
2019-03-18T10:14:54.210Z,10.19
2019-03-18T10:17:57.496Z,9.93
2019-03-18T10:21:00.879Z,10.66
2019-03-18T10:24:04.237Z,10.97
2019-03-18T10:27:07.530Z,11.84
2019-03-18T10:30:16.916Z,10.98
2019-03-18T10:33:20.297Z,10.81
2019-03-18T10:36:23.616Z,11.51
2019-03-18T10:39:26.955Z,11.03
2019-03-18T10:42:30.271Z,10.59
2019-03-18T10:45:33.582Z,10.91
2019-03-18T10:48:36.884Z,10.77
2019-03-18T10:51:40.264Z,10.17
2019-03-18T10:54:43.570Z,10.67
2019-03-18T10:57:46.873Z,10.90
2019-03-18T11:00:50.216Z,10.30
2019-03-18T11:03:53.481Z,9.79
2019-03-18T11:06:56.814Z,10.31
2019-03-18T11:10:00.260Z,10.51
2019-03-18T11:13:03.712Z,10.14
2019-03-18T11:16:07.072Z,9.97
2019-03-18T11:19:10.373Z,9.93
2019-03-18T11:22:13.687Z,10.22
2019-03-18T11:25:17.469Z,9.91
2019-03-18T11:28:20.788Z,9.47
2019-03-18T11:31:24.183Z,9.26
2019-03-18T11:34:27.470Z,9.27
2019-03-18T11:37:30.789Z,9.22
2019-03-18T11:40:34.084Z,9.74
2019-03-18T11:43:37.397Z,10.40
2019-03-18T11:46:40.818Z,10.93
2019-03-18T11:49:45.725Z,11.17
2019-03-18T11:52:49.072Z,11.92
2019-03-18T11:55:52.393Z,12.62
2019-03-18T11:58:55.683Z,11.94
2019-03-18T12:01:59.070Z,11.34
2019-03-18T12:05:02.410Z,10.37
2019-03-18T12:08:05.706Z,10.30
2019-03-18T12:11:09.037Z,10.96
2019-03-18T12:14:12.335Z,11.14
2019-03-18T12:17:15.648Z,10.93
2019-03-18T12:20:24.693Z,10.40
2019-03-18T12:23:23.999Z,10.09
2019-03-18T12:26:27.309Z,10.69
2019-03-18T12:29:30.599Z,11.29
2019-03-18T12:32:33.931Z,11.37
2019-03-18T12:35:37.263Z,11.09
2019-03-18T12:38:40.564Z,10.81
2019-03-18T12:41:43.883Z,11.20
2019-03-18T12:44:47.171Z,11.07
2019-03-18T12:47:50.482Z,11.17
2019-03-18T12:50:56.155Z,11.24
2019-03-18T12:53:58.831Z,11.20
2019-03-18T12:57:02.150Z,10.86
2019-03-18T13:00:18.176Z,10.66
2019-03-18T13:03:21.481Z,10.37
2019-03-18T13:06:24.887Z,10.13
2019-03-18T13:09:28.266Z,10.10
2019-03-18T13:12:31.585Z,10.08
2019-03-18T13:15:34.902Z,10.33
2019-03-18T13:18:38.199Z,10.68
2019-03-18T13:21:41.520Z,11.01
2019-03-18T13:24:44.880Z,11.23
2019-03-18T13:27:48.186Z,11.26
2019-03-18T13:30:51.497Z,11.23
2019-03-18T13:33:54.822Z,11.35
2019-03-18T13:36:58.151Z,11.17
2019-03-18T13:40:01.455Z,10.83
2019-03-18T13:43:04.779Z,10.72
2019-03-18T13:46:08.108Z,10.50
2019-03-18T13:49:11.414Z,10.57
2019-03-18T13:52:14.736Z,10.43
2019-03-18T13:55:18.053Z,10.36
2019-03-18T13:58:21.367Z,10.55
2019-03-18T14:01:24.668Z,10.54
2019-03-18T14:04:27.981Z,10.49
2019-03-18T14:07:31.318Z,10.32
2019-03-18T14:10:34.646Z,10.32
2019-03-18T14:13:37.938Z,10.29
2019-03-18T14:16:41.249Z,10.22
2019-03-18T14:19:44.551Z,10.08
2019-03-18T14:22:47.887Z,10.03
2019-03-18T14:25:51.310Z,10.30
2019-03-18T14:28:54.607Z,10.29
2019-03-18T14:31:58.770Z,10.05
2019-03-18T14:35:02.086Z,9.93
2019-03-18T14:38:05.393Z,9.87
2019-03-18T14:41:08.745Z,10.03
2019-03-18T14:44:12.065Z,10.00
2019-03-18T14:47:15.394Z,9.85
2019-03-18T14:50:19.395Z,9.01
2019-03-18T14:53:22.703Z,7.92
2019-03-18T14:56:26.028Z,7.77
2019-03-18T14:59:29.346Z,7.81
2019-03-18T15:02:32.639Z,8.14
2019-03-18T15:05:37.076Z,8.46
2019-03-18T15:08:40.456Z,8.56
2019-03-18T15:11:43.815Z,8.80
2019-03-18T15:14:47.240Z,9.04
2019-03-18T15:17:50.607Z,9.05
2019-03-18T15:20:53.911Z,9.06
2019-03-18T15:23:57.272Z,9.01
2019-03-18T15:27:13.942Z,9.01
2019-03-18T15:30:20.740Z,9.08
2019-03-18T15:33:24.043Z,9.11
2019-03-18T15:36:27.339Z,9.10
2019-03-18T15:39:30.653Z,8.89
2019-03-18T15:42:34.021Z,8.99
2019-03-18T15:45:37.390Z,8.96
2019-03-18T15:48:40.731Z,9.13
2019-03-18T15:51:43.986Z,9.19
2019-03-18T15:54:53.746Z,9.12
2019-03-18T15:57:52.425Z,9.12
2019-03-18T16:00:55.758Z,8.97
2019-03-18T16:03:59.082Z,9.05
2019-03-18T16:07:07.991Z,8.94
2019-03-18T16:10:18.200Z,9.07
2019-03-18T16:13:21.498Z,9.01
2019-03-18T16:16:24.822Z,9.00
2019-03-18T16:19:28.147Z,9.08
2019-03-18T16:22:31.445Z,8.95
2019-03-18T16:25:34.806Z,9.08
2019-03-18T16:28:38.155Z,9.07
2019-03-18T16:31:41.487Z,9.09
2019-03-18T16:34:44.867Z,9.19
2019-03-18T16:37:48.177Z,9.18
2019-03-18T16:40:51.478Z,9.13
2019-03-18T16:43:54.801Z,9.12
2019-03-18T16:46:58.140Z,9.00
2019-03-18T16:50:01.479Z,8.93
2019-03-18T16:53:04.805Z,8.84
2019-03-18T16:56:08.132Z,8.81
2019-03-18T16:59:11.419Z,8.72
2019-03-18T17:02:14.727Z,8.63
2019-03-18T17:05:18.037Z,8.61
2019-03-18T17:08:21.341Z,8.47
2019-03-18T17:11:24.667Z,8.41
2019-03-18T17:14:27.970Z,8.36
2019-03-18T17:17:31.283Z,8.36
2019-03-18T17:20:34.599Z,8.34
2019-03-18T17:23:37.895Z,8.39
2019-03-18T17:26:41.238Z,8.39
2019-03-18T17:29:44.558Z,8.37
2019-03-18T17:32:47.886Z,8.33
2019-03-18T17:35:51.193Z,8.33
2019-03-18T17:38:54.526Z,8.28
2019-03-18T17:41:57.857Z,8.33
2019-03-18T17:45:01.157Z,8.26
2019-03-18T17:48:04.484Z,8.20
2019-03-18T17:51:07.786Z,8.22
2019-03-18T17:54:11.108Z,8.16
2019-03-18T17:57:14.437Z,8.13
2019-03-18T18:00:34.998Z,8.16
2019-03-18T18:03:38.403Z,8.09
2019-03-18T18:06:41.734Z,8.09
2019-03-18T18:09:45.083Z,8.07
2019-03-18T18:12:48.409Z,8.05
2019-03-18T18:15:51.736Z,7.94
2019-03-18T18:18:55.078Z,7.90
2019-03-18T18:21:58.430Z,7.90
2019-03-18T18:25:01.780Z,7.83
2019-03-18T18:28:05.108Z,7.80
2019-03-18T18:31:08.418Z,7.74
2019-03-18T18:34:11.774Z,7.63
2019-03-18T18:37:15.158Z,7.56
2019-03-18T18:40:20.821Z,7.48
2019-03-18T18:43:24.189Z,7.43
2019-03-18T18:46:27.498Z,7.35
2019-03-18T18:49:30.819Z,7.27
2019-03-18T18:52:34.137Z,7.17
2019-03-18T18:55:37.475Z,7.12
2019-03-18T18:58:40.881Z,7.02
2019-03-18T19:01:44.190Z,7.02
2019-03-18T19:04:47.530Z,6.96
2019-03-18T19:07:50.840Z,6.99
2019-03-18T19:10:54.876Z,6.98
2019-03-18T19:13:58.274Z,6.96
2019-03-18T19:17:02.027Z,6.94
2019-03-18T19:20:09.151Z,6.93
2019-03-18T19:23:13.320Z,6.90
2019-03-18T19:26:17.075Z,6.87
2019-03-18T19:29:21.252Z,6.80
2019-03-18T19:32:27.302Z,6.73
2019-03-18T19:35:31.592Z,6.71
2019-03-18T19:38:34.923Z,6.64
2019-03-18T19:41:40.193Z,6.63
2019-03-18T19:44:43.274Z,6.57
2019-03-18T19:47:46.579Z,6.44
2019-03-18T19:50:49.909Z,6.57
2019-03-18T19:53:53.221Z,6.56
2019-03-18T19:56:56.580Z,6.49
2019-03-18T20:00:08.954Z,6.53
2019-03-18T20:03:11.997Z,6.47
2019-03-18T20:06:15.419Z,6.51
2019-03-18T20:09:18.866Z,6.43
2019-03-18T20:12:22.262Z,6.41
2019-03-18T20:15:25.668Z,6.40
2019-03-18T20:18:29.012Z,6.41
2019-03-18T20:21:32.674Z,6.34
2019-03-18T20:24:36.046Z,6.42
2019-03-18T20:27:39.378Z,6.43
2019-03-18T20:30:42.826Z,6.40
2019-03-18T20:33:46.121Z,6.35
2019-03-18T20:36:49.467Z,6.25
2019-03-18T20:39:52.881Z,6.25
2019-03-18T20:42:56.230Z,6.16
2019-03-18T20:45:59.560Z,6.28
2019-03-18T20:49:02.952Z,6.14
2019-03-18T20:52:16.406Z,6.04
2019-03-18T20:55:11.487Z,5.96
2019-03-18T20:58:14.839Z,5.81
2019-03-18T21:01:18.160Z,5.89
2019-03-18T21:04:21.511Z,5.85
2019-03-18T21:07:24.848Z,5.72
2019-03-18T21:10:28.210Z,5.85
2019-03-18T21:13:31.586Z,5.68
2019-03-18T21:16:34.990Z,5.81
2019-03-18T21:19:38.305Z,5.73
2019-03-18T21:22:41.734Z,5.75
2019-03-18T21:25:45.031Z,6.12
2019-03-18T21:28:49.352Z,6.07
2019-03-18T21:31:52.702Z,6.08
2019-03-18T21:34:56.028Z,5.90
2019-03-18T21:37:59.366Z,5.90
2019-03-18T21:41:02.692Z,5.92
2019-03-18T21:44:06.042Z,5.98
2019-03-18T21:47:09.420Z,5.81
2019-03-18T21:50:14.253Z,5.89
2019-03-18T21:53:17.577Z,5.85
2019-03-18T21:56:20.878Z,5.88
2019-03-18T21:59:24.225Z,5.69
2019-03-18T22:02:27.565Z,5.74
2019-03-18T22:05:30.893Z,5.72
2019-03-18T22:08:34.285Z,5.55
2019-03-18T22:11:37.636Z,5.53
2019-03-18T22:14:40.961Z,5.49
2019-03-18T22:17:44.289Z,5.54
2019-03-18T22:20:47.608Z,5.50
2019-03-18T22:23:50.923Z,5.47
2019-03-18T22:26:54.260Z,5.42
2019-03-18T22:29:57.583Z,5.39
2019-03-18T22:33:00.920Z,5.35
2019-03-18T22:36:04.258Z,5.40
2019-03-18T22:39:08.618Z,5.42
2019-03-18T22:42:11.966Z,5.34
2019-03-18T22:45:17.486Z,5.30
2019-03-18T22:48:20.828Z,5.38
2019-03-18T22:51:24.130Z,5.26
2019-03-18T22:54:27.453Z,5.02
2019-03-18T22:57:30.810Z,5.17
2019-03-18T23:00:35.790Z,4.92
2019-03-18T23:03:39.120Z,4.90
2019-03-18T23:06:42.408Z,4.95
2019-03-18T23:09:45.736Z,4.99
2019-03-18T23:12:49.093Z,4.93
2019-03-18T23:15:52.370Z,4.75
2019-03-18T23:18:55.712Z,4.86
2019-03-18T23:21:59.106Z,4.83
2019-03-18T23:25:06.951Z,4.92
2019-03-18T23:28:07.422Z,4.74
2019-03-18T23:31:10.758Z,4.90
2019-03-18T23:34:14.109Z,4.98
2019-03-18T23:37:17.418Z,4.97
2019-03-18T23:40:20.785Z,5.01
2019-03-18T23:43:24.137Z,4.87
2019-03-18T23:46:27.489Z,4.96
2019-03-18T23:49:30.834Z,5.04
2019-03-18T23:52:34.162Z,5.04
2019-03-18T23:55:37.491Z,4.99
2019-03-18T23:58:40.814Z,4.85
